createdAt,value
2019-03-29T00:00:28.183Z,101376.94
2019-03-29T00:02:57.129Z,101376.25
2019-03-29T00:05:25.991Z,101379.52
2019-03-29T00:07:54.866Z,101374.53
2019-03-29T00:10:23.735Z,101378.12
2019-03-29T00:12:52.625Z,101380.06
2019-03-29T00:15:21.850Z,101377.21
2019-03-29T00:17:50.848Z,101373.77
2019-03-29T00:20:20.180Z,101365.55
2019-03-29T00:22:49.384Z,101359.97
2019-03-29T00:25:18.256Z,101359.29
2019-03-29T00:27:47.220Z,101361.20
2019-03-29T00:30:16.101Z,101364.59
2019-03-29T00:32:44.964Z,101360.81
2019-03-29T00:35:14.211Z,101369.76
2019-03-29T00:37:53.504Z,101366.12
2019-03-29T00:40:13.890Z,101372.47
2019-03-29T00:42:43.111Z,101374.58
2019-03-29T00:45:13.584Z,101378.14
2019-03-29T00:47:43.059Z,101372.13
2019-03-29T00:50:12.027Z,101367.77
2019-03-29T00:52:40.929Z,101366.94
2019-03-29T00:55:09.826Z,101361.95
2019-03-29T00:57:38.698Z,101348.98
2019-03-29T01:00:09.140Z,101359.61
2019-03-29T01:02:38.313Z,101362.03
2019-03-29T01:05:07.287Z,101351.95
2019-03-29T01:07:37.444Z,101361.85
2019-03-29T01:10:07.639Z,101364.59
2019-03-29T01:12:36.502Z,101355.18
2019-03-29T01:15:09.117Z,101354.25
2019-03-29T01:17:38.376Z,101355.98
2019-03-29T01:20:08.651Z,101352.09
2019-03-29T01:22:37.633Z,101350.20
2019-03-29T01:25:08.009Z,101362.41
2019-03-29T01:27:37.095Z,101355.31
2019-03-29T01:30:06.289Z,101355.83
2019-03-29T01:32:35.159Z,101353.97
2019-03-29T01:35:04.557Z,101349.46
2019-03-29T01:37:33.426Z,101350.80
2019-03-29T01:40:02.333Z,101354.66
2019-03-29T01:42:31.198Z,101350.48
2019-03-29T01:45:01.262Z,101356.69
2019-03-29T01:47:30.272Z,101351.11
2019-03-29T01:49:59.257Z,101353.03
2019-03-29T01:52:30.232Z,101358.27
2019-03-29T01:55:00.663Z,101354.09
2019-03-29T01:57:29.525Z,101353.41
2019-03-29T01:59:58.474Z,101353.89
2019-03-29T02:02:27.675Z,101356.50
2019-03-29T02:04:56.556Z,101354.85
2019-03-29T02:07:25.438Z,101347.48
2019-03-29T02:09:54.369Z,101347.14
2019-03-29T02:12:23.228Z,101339.77
2019-03-29T02:14:52.161Z,101345.94
2019-03-29T02:17:21.247Z,101340.70
2019-03-29T02:19:50.912Z,101340.70
2019-03-29T02:22:19.778Z,101349.03
2019-03-29T02:24:49.314Z,101343.31
2019-03-29T02:27:19.299Z,101349.52
2019-03-29T02:29:48.568Z,101344.63
2019-03-29T02:32:17.408Z,101340.70
2019-03-29T02:34:46.688Z,101339.05
2019-03-29T02:37:16.851Z,101344.28
2019-03-29T02:39:45.807Z,101335.61
2019-03-29T02:42:16.100Z,101330.86
2019-03-29T02:44:45.025Z,101332.64
2019-03-29T02:47:14.986Z,101329.69
2019-03-29T02:49:43.938Z,101326.59
2019-03-29T02:52:12.802Z,101324.45
2019-03-29T02:54:41.764Z,101323.62
2019-03-29T02:57:10.714Z,101321.02
2019-03-29T02:59:39.708Z,101320.53
2019-03-29T03:02:08.559Z,101325.07
2019-03-29T03:04:37.518Z,101329.48
2019-03-29T03:07:06.345Z,101325.66
2019-03-29T03:09:35.253Z,101330.06
2019-03-29T03:12:04.097Z,101327.09
2019-03-29T03:14:33.019Z,101329.84
2019-03-29T03:17:01.892Z,101324.63
2019-03-29T03:19:30.851Z,101322.97
2019-03-29T03:21:59.717Z,101327.02
2019-03-29T03:24:28.667Z,101327.95
2019-03-29T03:26:57.842Z,101325.95
2019-03-29T03:29:26.731Z,101325.61
2019-03-29T03:31:55.602Z,101321.92
2019-03-29T03:34:24.501Z,101323.37
2019-03-29T03:36:53.340Z,101323.50
2019-03-29T03:39:31.587Z,101324.94
2019-03-29T03:41:54.044Z,101317.23
2019-03-29T03:44:22.973Z,101314.00
2019-03-29T03:46:51.847Z,101314.48
2019-03-29T03:49:21.752Z,101309.97
2019-03-29T03:51:50.677Z,101309.27
2019-03-29T03:54:19.949Z,101309.89
2019-03-29T03:56:50.715Z,101303.11
2019-03-29T03:59:22.228Z,101305.64
2019-03-29T04:01:51.115Z,101306.70
2019-03-29T04:04:20.427Z,101310.89
2019-03-29T04:06:49.277Z,101311.52
2019-03-29T04:09:18.434Z,101311.42
2019-03-29T04:11:47.299Z,101317.39
2019-03-29T04:14:16.194Z,101314.44
2019-03-29T04:16:45.057Z,101312.64
2019-03-29T04:19:15.294Z,101311.20
2019-03-29T04:21:44.165Z,101311.20
2019-03-29T04:24:14.380Z,101310.86
2019-03-29T04:26:43.243Z,101307.55
2019-03-29T04:29:12.125Z,101305.87
2019-03-29T04:31:40.997Z,101300.77
2019-03-29T04:34:09.926Z,101309.22
2019-03-29T04:36:38.761Z,101311.01
2019-03-29T04:39:07.717Z,101306.39
2019-03-29T04:41:36.562Z,101306.62
2019-03-29T04:44:05.491Z,101316.38
2019-03-29T04:46:34.402Z,101316.61
2019-03-29T04:49:03.440Z,101313.56
2019-03-29T04:51:32.342Z,101318.31
2019-03-29T04:54:01.830Z,101311.66
2019-03-29T04:56:31.542Z,101318.19
2019-03-29T04:59:00.678Z,101319.75
2019-03-29T05:01:29.520Z,101317.75
2019-03-29T05:03:58.443Z,101321.28
2019-03-29T05:06:27.293Z,101323.89
2019-03-29T05:08:56.224Z,101325.68
2019-03-29T05:11:25.079Z,101329.72
2019-03-29T05:13:54.371Z,101328.55
2019-03-29T05:16:23.222Z,101330.69
2019-03-29T05:18:52.129Z,101329.98
2019-03-29T05:21:21.458Z,101319.19
2019-03-29T05:23:50.349Z,101327.98
2019-03-29T05:26:19.255Z,101328.91
2019-03-29T05:28:48.120Z,101331.03
2019-03-29T05:31:18.625Z,101327.25
2019-03-29T05:33:48.484Z,101334.25
2019-03-29T05:36:17.344Z,101329.03
2019-03-29T05:38:46.248Z,101328.20
2019-03-29T05:41:16.705Z,101333.42
2019-03-29T05:43:46.008Z,101332.12
2019-03-29T05:46:14.875Z,101334.25
2019-03-29T05:48:43.761Z,101346.00
2019-03-29T05:51:12.666Z,101329.03
2019-03-29T05:53:41.555Z,101342.08
2019-03-29T05:56:10.409Z,101343.73
2019-03-29T05:58:39.309Z,101353.70
2019-03-29T06:01:08.224Z,101353.70
2019-03-29T06:03:40.104Z,101356.22
2019-03-29T06:06:09.002Z,101351.22
2019-03-29T06:08:37.883Z,101344.44
2019-03-29T06:11:06.791Z,101352.39
2019-03-29T06:13:35.741Z,101351.21
2019-03-29T06:16:06.214Z,101349.17
2019-03-29T06:18:35.338Z,101353.56
2019-03-29T06:21:04.211Z,101349.39
2019-03-29T06:23:33.458Z,101349.86
2019-03-29T06:26:02.435Z,101345.45
2019-03-29T06:28:31.422Z,101342.00
2019-03-29T06:31:00.301Z,101350.05
2019-03-29T06:33:29.219Z,101344.33
2019-03-29T06:36:00.402Z,101340.27
2019-03-29T06:38:33.197Z,101338.33
2019-03-29T06:41:03.609Z,101337.70
2019-03-29T06:43:32.695Z,101344.43
2019-03-29T06:46:01.555Z,101343.73
2019-03-29T06:48:30.460Z,101345.08
2019-03-29T06:50:59.349Z,101349.44
2019-03-29T06:53:28.705Z,101342.12
2019-03-29T06:55:59.454Z,101342.40
2019-03-29T06:58:32.813Z,101344.95
2019-03-29T07:01:01.838Z,101337.48
2019-03-29T07:03:30.710Z,101346.28
2019-03-29T07:06:11.793Z,101335.45
2019-03-29T07:08:40.722Z,101337.69
2019-03-29T07:11:17.325Z,101338.22
2019-03-29T07:13:40.442Z,101338.59
2019-03-29T07:16:09.394Z,101338.65
2019-03-29T07:18:38.578Z,101343.27
2019-03-29T07:21:20.780Z,101340.37
2019-03-29T07:23:38.641Z,101338.39
2019-03-29T07:26:07.497Z,101339.20
2019-03-29T07:28:37.501Z,101340.85
2019-03-29T07:31:06.408Z,101340.70
2019-03-29T07:33:35.554Z,101340.28
2019-03-29T07:36:04.441Z,101339.36
2019-03-29T07:38:33.654Z,101332.48
2019-03-29T07:41:02.645Z,101330.72
2019-03-29T07:43:31.556Z,101339.47
2019-03-29T07:46:00.714Z,101335.03
2019-03-29T07:48:29.605Z,101329.11
2019-03-29T07:50:58.494Z,101329.87
2019-03-29T07:53:27.375Z,101329.95
2019-03-29T07:55:56.572Z,101320.30
2019-03-29T07:58:25.488Z,101322.75
2019-03-29T08:00:54.360Z,101322.06
2019-03-29T08:03:23.616Z,101327.16
2019-03-29T08:05:53.129Z,101319.79
2019-03-29T08:08:24.646Z,101316.70
2019-03-29T08:10:53.984Z,101315.88
2019-03-29T08:13:23.845Z,101311.73
2019-03-29T08:15:52.809Z,101304.09
2019-03-29T08:18:22.046Z,101305.45
2019-03-29T08:20:51.279Z,101304.83
2019-03-29T08:23:20.562Z,101305.66
2019-03-29T08:25:49.470Z,101298.67
2019-03-29T08:28:18.701Z,101301.22
2019-03-29T08:30:47.650Z,101298.91
2019-03-29T08:33:18.118Z,101293.55
2019-03-29T08:35:47.067Z,101294.94
2019-03-29T08:38:15.929Z,101285.91
2019-03-29T08:40:45.355Z,101285.20
2019-03-29T08:43:14.627Z,101287.45
2019-03-29T08:45:43.896Z,101276.41
2019-03-29T08:48:12.762Z,101287.79
2019-03-29T08:50:41.704Z,101278.77
2019-03-29T08:53:10.531Z,101287.63
2019-03-29T08:55:45.741Z,101280.14
2019-03-29T08:58:10.277Z,101281.80
2019-03-29T09:00:39.189Z,101280.38
2019-03-29T09:03:08.025Z,101281.30
2019-03-29T09:05:39.174Z,101269.90
2019-03-29T09:08:16.035Z,101266.39
2019-03-29T09:10:52.622Z,101272.67
2019-03-29T09:13:22.081Z,101265.67
2019-03-29T09:15:50.963Z,101264.58
2019-03-29T09:18:19.816Z,101261.61
2019-03-29T09:20:48.677Z,101260.25
2019-03-29T09:23:18.687Z,101257.03
2019-03-29T09:25:47.573Z,101250.87
2019-03-29T09:28:16.541Z,101251.44
2019-03-29T09:30:45.457Z,101253.06
2019-03-29T09:33:14.315Z,101251.70
2019-03-29T09:35:43.289Z,101240.48
2019-03-29T09:38:12.113Z,101241.59
2019-03-29T09:40:40.999Z,101236.22
2019-03-29T09:43:09.852Z,101235.15
2019-03-29T09:45:41.130Z,101234.22
2019-03-29T09:48:09.952Z,101232.57
2019-03-29T09:50:38.860Z,101230.19
2019-03-29T09:53:07.725Z,101222.80
2019-03-29T09:55:36.582Z,101216.59
2019-03-29T09:58:05.481Z,101215.73
2019-03-29T10:00:34.329Z,101214.29
2019-03-29T10:03:03.598Z,101217.98
2019-03-29T10:05:32.567Z,101212.81
2019-03-29T10:08:01.669Z,101215.18
2019-03-29T10:10:30.469Z,101211.34
2019-03-29T10:12:59.335Z,101209.68
2019-03-29T10:15:28.209Z,101207.93
2019-03-29T10:17:57.089Z,101202.06
2019-03-29T10:20:25.930Z,101200.02
2019-03-29T10:22:54.829Z,101195.77
2019-03-29T10:25:23.727Z,101189.37
2019-03-29T10:27:52.611Z,101176.34
2019-03-29T10:30:37.420Z,101184.88
2019-03-29T10:33:06.364Z,101180.38
2019-03-29T10:35:50.249Z,101180.25
2019-03-29T10:38:06.040Z,101176.83
2019-03-29T10:40:35.237Z,101172.28
2019-03-29T10:43:04.535Z,101171.74
2019-03-29T10:45:39.563Z,101168.27
2019-03-29T10:48:05.520Z,101168.87
2019-03-29T10:50:34.668Z,101158.20
2019-03-29T10:53:03.527Z,101157.73
2019-03-29T10:55:32.461Z,101159.39
2019-03-29T10:58:01.326Z,101154.33
2019-03-29T11:00:38.733Z,101155.96
2019-03-29T11:03:08.252Z,101147.61
2019-03-29T11:05:37.585Z,101152.41
2019-03-29T11:08:06.529Z,101149.13
2019-03-29T11:10:36.328Z,101151.19
2019-03-29T11:13:13.167Z,101146.22
2019-03-29T11:15:37.880Z,101146.91
2019-03-29T11:18:07.290Z,101148.66
2019-03-29T11:20:36.256Z,101139.66
2019-03-29T11:23:05.190Z,101146.11
2019-03-29T11:25:34.365Z,101137.14
2019-03-29T11:28:03.431Z,101142.56
2019-03-29T11:30:42.030Z,101144.43
2019-03-29T11:33:03.317Z,101144.66
2019-03-29T11:35:32.177Z,101135.68
2019-03-29T11:38:02.383Z,101128.71
2019-03-29T11:40:31.277Z,101134.09
2019-03-29T11:43:00.315Z,101128.70
2019-03-29T11:45:29.672Z,101123.34
2019-03-29T11:48:08.306Z,101118.70
2019-03-29T11:50:29.762Z,101118.35
2019-03-29T11:52:58.738Z,101120.97
2019-03-29T11:55:27.608Z,101119.42
2019-03-29T11:57:57.797Z,101116.06
2019-03-29T12:00:35.076Z,101111.50
2019-03-29T12:03:09.070Z,101108.50
2019-03-29T12:05:36.706Z,101111.78
2019-03-29T12:08:06.098Z,101107.59
2019-03-29T12:10:35.464Z,101107.39
2019-03-29T12:13:06.435Z,101104.50
2019-03-29T12:15:35.505Z,101101.11
2019-03-29T12:18:04.445Z,101094.64
2019-03-29T12:20:33.611Z,101099.22
2019-03-29T12:23:02.792Z,101090.11
2019-03-29T12:25:31.764Z,101094.20
2019-03-29T12:28:02.794Z,101088.33
2019-03-29T12:30:32.561Z,101085.61
2019-03-29T12:33:01.714Z,101079.22
2019-03-29T12:35:30.591Z,101073.46
2019-03-29T12:37:59.522Z,101074.30
2019-03-29T12:40:28.485Z,101073.22
2019-03-29T12:42:57.349Z,101067.49
2019-03-29T12:45:26.286Z,101063.71
2019-03-29T12:47:55.424Z,101063.55
2019-03-29T12:50:24.396Z,101054.41
2019-03-29T12:52:53.372Z,101050.92
2019-03-29T12:55:23.510Z,101049.22
2019-03-29T12:57:52.864Z,101049.72
2019-03-29T13:00:21.800Z,101045.30
2019-03-29T13:02:52.306Z,101037.59
2019-03-29T13:05:22.687Z,101034.98
2019-03-29T13:07:53.265Z,101041.06
2019-03-29T13:10:22.629Z,101034.75
2019-03-29T13:12:51.491Z,101033.00
2019-03-29T13:15:21.549Z,101026.15
2019-03-29T13:17:50.516Z,101025.84
2019-03-29T13:20:19.357Z,101018.77
2019-03-29T13:22:48.258Z,101012.50
2019-03-29T13:25:17.076Z,101011.48
2019-03-29T13:27:46.058Z,101004.37
2019-03-29T13:30:17.170Z,100997.48
2019-03-29T13:32:47.337Z,100989.53
2019-03-29T13:35:16.336Z,100990.28
2019-03-29T13:37:45.206Z,100983.48
2019-03-29T13:40:14.458Z,100982.98
2019-03-29T13:42:43.323Z,100978.20
2019-03-29T13:45:12.269Z,100974.98
2019-03-29T13:47:41.164Z,100963.64
2019-03-29T13:50:10.812Z,100968.62
2019-03-29T13:52:39.684Z,100961.38
2019-03-29T13:55:08.634Z,100964.75
2019-03-29T13:57:37.571Z,100961.34
2019-03-29T14:00:10.841Z,100953.28
2019-03-29T14:02:39.966Z,100953.67
2019-03-29T14:05:10.908Z,100953.57
2019-03-29T14:07:39.749Z,100952.94
2019-03-29T14:10:10.246Z,100959.52
2019-03-29T14:12:40.991Z,100948.19
2019-03-29T14:15:11.457Z,100943.20
2019-03-29T14:17:40.383Z,100942.83
2019-03-29T14:20:10.164Z,100934.58
2019-03-29T14:22:39.059Z,100937.12
2019-03-29T14:25:08.273Z,100936.71
2019-03-29T14:27:38.222Z,100929.56
2019-03-29T14:30:09.316Z,100918.34
2019-03-29T14:32:38.185Z,100925.36
2019-03-29T14:35:38.585Z,100911.05
2019-03-29T14:38:15.989Z,100917.58
2019-03-29T14:40:45.157Z,100914.94
2019-03-29T14:43:14.012Z,100916.25
2019-03-29T14:45:42.876Z,100914.50
2019-03-29T14:48:11.780Z,100908.91
2019-03-29T14:50:40.789Z,100915.80
2019-03-29T14:53:09.633Z,100907.28
2019-03-29T14:55:38.544Z,100905.56
2019-03-29T14:58:07.433Z,100910.80
2019-03-29T15:00:41.840Z,100903.05
2019-03-29T15:03:11.119Z,100893.94
2019-03-29T15:05:40.896Z,100896.64
2019-03-29T15:08:11.612Z,100899.36
2019-03-29T15:10:40.506Z,100899.64
2019-03-29T15:13:09.408Z,100897.48
2019-03-29T15:15:38.235Z,100893.69
2019-03-29T15:18:07.450Z,100887.73
2019-03-29T15:20:36.250Z,100892.55
2019-03-29T15:23:05.240Z,100891.66
2019-03-29T15:25:35.148Z,100893.73
2019-03-29T15:28:03.974Z,100896.58
2019-03-29T15:30:32.773Z,100884.34
2019-03-29T15:33:01.921Z,100887.98
2019-03-29T15:35:30.777Z,100884.31
2019-03-29T15:38:00.730Z,100885.78
2019-03-29T15:40:29.551Z,100878.33
2019-03-29T15:42:58.392Z,100877.25
2019-03-29T15:45:27.395Z,100868.17
2019-03-29T15:47:56.260Z,100866.33
2019-03-29T15:50:25.206Z,100874.37
2019-03-29T15:52:54.073Z,100871.69
2019-03-29T15:55:24.973Z,100862.84
2019-03-29T15:57:53.685Z,100867.75
2019-03-29T16:00:22.518Z,100864.28
2019-03-29T16:02:51.531Z,100870.50
2019-03-29T16:05:21.790Z,100864.13
2019-03-29T16:07:50.866Z,100867.37
2019-03-29T16:10:20.075Z,100863.63
2019-03-29T16:12:48.907Z,100863.08
2019-03-29T16:15:28.179Z,100862.31
2019-03-29T16:17:50.326Z,100856.71
2019-03-29T16:20:20.271Z,100850.58
2019-03-29T16:22:49.128Z,100857.30
2019-03-29T16:25:19.235Z,100855.66
2019-03-29T16:27:48.761Z,100853.84
2019-03-29T16:30:17.923Z,100853.28
2019-03-29T16:32:47.090Z,100857.02
2019-03-29T16:35:16.633Z,100851.95
2019-03-29T16:37:56.541Z,100856.80
2019-03-29T16:40:16.345Z,100857.03
2019-03-29T16:42:45.516Z,100858.95
2019-03-29T16:45:14.533Z,100858.17
2019-03-29T16:47:43.597Z,100854.98
2019-03-29T16:50:12.822Z,100860.42
2019-03-29T16:52:41.761Z,100854.36
2019-03-29T16:55:14.099Z,100856.81
2019-03-29T16:57:44.098Z,100852.33
2019-03-29T17:00:13.832Z,100854.48
2019-03-29T17:02:43.240Z,100850.27
2019-03-29T17:05:12.191Z,100855.62
2019-03-29T17:07:41.086Z,100848.68
2019-03-29T17:10:10.057Z,100853.00
2019-03-29T17:12:38.999Z,100853.80
2019-03-29T17:15:08.149Z,100854.63
2019-03-29T17:17:37.190Z,100852.50
2019-03-29T17:20:07.075Z,100853.52
2019-03-29T17:22:36.894Z,100856.98
2019-03-29T17:25:06.709Z,100857.47
2019-03-29T17:27:35.579Z,100858.28
2019-03-29T17:30:07.329Z,100863.91
2019-03-29T17:32:36.662Z,100861.75
2019-03-29T17:35:07.848Z,100864.82
2019-03-29T17:37:36.706Z,100858.44
2019-03-29T17:40:07.299Z,100865.86
2019-03-29T17:42:36.380Z,100862.33
2019-03-29T17:45:06.810Z,100866.38
2019-03-29T17:47:35.948Z,100865.60
2019-03-29T17:50:05.852Z,100869.64
2019-03-29T17:52:35.165Z,100865.17
2019-03-29T17:55:04.747Z,100871.57
2019-03-29T17:57:33.792Z,100875.82
2019-03-29T18:00:04.099Z,100874.71
2019-03-29T18:02:32.913Z,100874.96
2019-03-29T18:05:02.080Z,100874.39
2019-03-29T18:07:31.200Z,100875.45
2019-03-29T18:10:00.388Z,100878.84
2019-03-29T18:12:29.395Z,100879.05
2019-03-29T18:14:58.292Z,100876.02
2019-03-29T18:17:27.198Z,100883.20
2019-03-29T18:19:56.193Z,100883.22
2019-03-29T18:22:25.009Z,100883.63
2019-03-29T18:24:54.021Z,100878.23
2019-03-29T18:27:23.998Z,100876.53
2019-03-29T18:29:53.020Z,100882.55
2019-03-29T18:32:22.536Z,100873.64
2019-03-29T18:34:52.557Z,100882.33
2019-03-29T18:37:23.406Z,100877.11
2019-03-29T18:39:54.995Z,100879.66
2019-03-29T18:42:23.174Z,100880.05
2019-03-29T18:44:52.320Z,100878.31
2019-03-29T18:47:22.739Z,100876.54
2019-03-29T18:49:51.890Z,100884.39
2019-03-29T18:52:20.884Z,100883.94
2019-03-29T18:54:49.863Z,100888.28
2019-03-29T18:57:18.983Z,100887.51
2019-03-29T18:59:48.295Z,100890.75
2019-03-29T19:02:17.183Z,100889.02
2019-03-29T19:04:46.628Z,100892.24
2019-03-29T19:07:20.088Z,100896.05
2019-03-29T19:09:49.168Z,100896.52
2019-03-29T19:12:19.127Z,100891.57
2019-03-29T19:14:48.252Z,100890.70
2019-03-29T19:17:17.412Z,100897.14
2019-03-29T19:19:46.447Z,100896.45
2019-03-29T19:22:15.595Z,100895.33
2019-03-29T19:24:44.934Z,100895.55
2019-03-29T19:27:13.860Z,100897.38
2019-03-29T19:29:43.473Z,100895.22
2019-03-29T19:32:13.337Z,100898.30
2019-03-29T19:34:44.341Z,100900.58
2019-03-29T19:37:15.545Z,100898.25
2019-03-29T19:39:44.626Z,100894.45
2019-03-29T19:42:26.726Z,100901.42
2019-03-29T19:44:56.455Z,100908.06
2019-03-29T19:47:26.083Z,100903.29
2019-03-29T19:49:55.633Z,100895.19
2019-03-29T19:52:25.167Z,100891.97
2019-03-29T19:55:02.799Z,100901.00
2019-03-29T19:57:31.862Z,100897.31
2019-03-29T20:00:02.080Z,100894.41
2019-03-29T20:02:33.047Z,100896.16
2019-03-29T20:05:14.036Z,100898.70
2019-03-29T20:07:43.002Z,100904.38
2019-03-29T20:10:11.994Z,100890.71
2019-03-29T20:12:40.949Z,100896.06
2019-03-29T20:15:10.087Z,100895.31
2019-03-29T20:17:39.076Z,100901.66
2019-03-29T20:20:09.867Z,100900.56
2019-03-29T20:22:38.775Z,100902.76
2019-03-29T20:25:07.773Z,100896.53
2019-03-29T20:27:38.555Z,100900.19
2019-03-29T20:30:10.693Z,100901.70
2019-03-29T20:32:48.757Z,100896.64
2019-03-29T20:35:17.658Z,100898.48
2019-03-29T20:37:47.618Z,100900.63
2019-03-29T20:40:16.571Z,100903.27
2019-03-29T20:42:46.501Z,100897.36
2019-03-29T20:45:15.410Z,100898.19
2019-03-29T20:47:44.396Z,100898.55
2019-03-29T20:50:14.202Z,100900.04
2019-03-29T20:52:43.607Z,100894.77
2019-03-29T20:55:13.323Z,100896.12
2019-03-29T20:57:42.698Z,100894.31
2019-03-29T21:00:20.996Z,100895.31
2019-03-29T21:02:49.966Z,100895.67
2019-03-29T21:05:19.105Z,100894.39
2019-03-29T21:07:48.498Z,100896.06
2019-03-29T21:10:18.726Z,100892.61
2019-03-29T21:12:47.907Z,100891.95
2019-03-29T21:15:17.396Z,100882.09
2019-03-29T21:17:56.468Z,100888.06
2019-03-29T21:20:19.890Z,100886.59
2019-03-29T21:22:49.360Z,100887.25
2019-03-29T21:25:18.345Z,100884.14
2019-03-29T21:27:47.276Z,100886.61
2019-03-29T21:30:16.400Z,100889.41
2019-03-29T21:32:45.833Z,100890.70
2019-03-29T21:35:14.769Z,100886.09
2019-03-29T21:37:43.891Z,100890.37
2019-03-29T21:40:13.435Z,100887.89
2019-03-29T21:42:42.359Z,100881.16
2019-03-29T21:45:12.868Z,100888.87
2019-03-29T21:47:41.971Z,100891.69
2019-03-29T21:50:11.967Z,100889.03
2019-03-29T21:52:40.902Z,100893.45
2019-03-29T21:55:10.046Z,100890.02
2019-03-29T21:57:39.010Z,100893.63
2019-03-29T22:00:10.279Z,100900.86
2019-03-29T22:02:39.267Z,100899.84
2019-03-29T22:05:10.344Z,100903.95
2019-03-29T22:07:39.457Z,100902.79
2019-03-29T22:10:10.618Z,100902.11
2019-03-29T22:12:42.840Z,100902.13
2019-03-29T22:15:11.196Z,100903.73
2019-03-29T22:17:40.079Z,100905.03
2019-03-29T22:20:09.472Z,100902.73
2019-03-29T22:22:38.391Z,100898.44
2019-03-29T22:25:08.745Z,100903.70
2019-03-29T22:27:37.981Z,100899.07
2019-03-29T22:30:08.755Z,100901.17
2019-03-29T22:32:38.771Z,100905.61
2019-03-29T22:35:08.066Z,100907.55
2019-03-29T22:37:36.945Z,100906.23
2019-03-29T22:40:08.061Z,100907.52
2019-03-29T22:42:36.955Z,100906.17
2019-03-29T22:45:08.978Z,100903.52
2019-03-29T22:47:37.899Z,100900.52
2019-03-29T22:50:07.215Z,100901.97
2019-03-29T22:52:37.304Z,100900.65
2019-03-29T22:55:06.728Z,100902.59
2019-03-29T22:57:35.608Z,100902.25
2019-03-29T23:00:15.376Z,100897.30
2019-03-29T23:02:46.373Z,100902.88
2019-03-29T23:05:15.229Z,100897.58
2019-03-29T23:07:45.238Z,100897.41
2019-03-29T23:10:14.115Z,100899.02
2019-03-29T23:12:43.464Z,100904.92
2019-03-29T23:15:12.524Z,100899.50
2019-03-29T23:17:41.881Z,100903.89
2019-03-29T23:20:11.251Z,100901.58
2019-03-29T23:22:40.101Z,100903.34
2019-03-29T23:25:10.285Z,100892.14
2019-03-29T23:27:39.159Z,100895.26
2019-03-29T23:30:08.519Z,100894.93
2019-03-29T23:32:37.546Z,100888.37
2019-03-29T23:35:08.019Z,100890.66
2019-03-29T23:37:36.903Z,100895.55
2019-03-29T23:40:05.968Z,100893.89
2019-03-29T23:42:35.993Z,100886.64
2019-03-29T23:45:05.798Z,100887.45
2019-03-29T23:47:34.669Z,100890.36
2019-03-29T23:50:04.352Z,100883.63
2019-03-29T23:52:33.183Z,100881.32
2019-03-29T23:55:02.423Z,100886.08
2019-03-29T23:57:32.276Z,100883.58
